Archer, Wyoming
Current Conditions -  °F | °C
As of 11:53 AM on Friday 24 Oct 2014 (Local Time) from KCYS Reporting Station
Clear Clear  
Wind Chill: 69°   Ceiling: Unl
Heat Index: 69°   Visibility: 10mi
Dew Point: 26°   Wind: 17mph
Humidity: 20%   Direction: 280°W
Pressure: 30.22"   Gusts: NA
Location:  41.4091°N, 104.861°W
Report Text: KCYS 241753Z 28015KT 10SM CLR 21/M03 A3022 RMK AO2 SLP164 T02061033 10206 20117 51001 $
Loading
Personal Weather Stations






























Interactive Weather Map
Tropical Storm Tracking
New forecast layout! Learn more

10-Day Weather Forecast

Advertisements
Track Severe Weather on mobile